Terminal Aerodrome Forecast
Issued by NWS

Home | Current Version | Previous Version | Text Only | Print | Product List | Glossary On
Versions: 1 2 3 4 5 6 7 8 9 10 11 12 13
000
FTUS44 KEPZ 270500
TAFTCS
TAF
KTCS 270520Z 2706/2806 35007KT P6SM SKC
     FM271700 04008KT P6SM FEW150
     FM280200 31006KT P6SM SKC=

USA.gov is the U.S. government's official web portal to all federal, state and local government web resources and services.